createdAt,value
2019-01-05T00:00:16.980Z,0.00
2019-01-05T00:01:16.971Z,0.00
2019-01-05T00:02:16.967Z,0.00
2019-01-05T00:03:16.959Z,0.00
2019-01-05T00:04:16.949Z,0.00
2019-01-05T00:05:16.944Z,0.00
2019-01-05T00:06:16.931Z,0.00
2019-01-05T00:07:16.926Z,0.00
2019-01-05T00:08:16.920Z,0.00
2019-01-05T00:09:16.909Z,0.00
2019-01-05T00:10:16.896Z,0.00
2019-01-05T00:11:16.896Z,0.00
2019-01-05T00:12:16.880Z,0.00
2019-01-05T00:13:16.878Z,0.00
2019-01-05T00:14:16.871Z,0.00
2019-01-05T00:15:16.853Z,0.00
2019-01-05T00:16:16.850Z,0.00
2019-01-05T00:17:16.844Z,0.00
2019-01-05T00:18:16.837Z,0.00
2019-01-05T00:19:16.826Z,0.00
2019-01-05T00:20:16.821Z,0.00
2019-01-05T00:21:19.689Z,0.00
2019-01-05T00:22:16.799Z,0.00
2019-01-05T00:23:16.794Z,0.00
2019-01-05T00:24:16.780Z,0.00
2019-01-05T00:25:16.777Z,0.00
2019-01-05T00:26:16.765Z,0.00
2019-01-05T00:27:16.755Z,0.00
2019-01-05T00:28:16.750Z,0.00
2019-01-05T00:29:16.741Z,0.00
2019-01-05T00:30:16.735Z,0.00
2019-01-05T00:31:16.728Z,0.00
2019-01-05T00:32:16.721Z,0.00
2019-01-05T00:33:16.706Z,0.00
2019-01-05T00:34:16.700Z,0.00
2019-01-05T00:35:16.689Z,0.00
2019-01-05T00:36:16.683Z,0.00
2019-01-05T00:37:16.677Z,0.00
2019-01-05T00:38:16.670Z,0.00
2019-01-05T00:39:16.658Z,0.00
2019-01-05T00:40:17.072Z,0.00
2019-01-05T00:41:16.638Z,0.00
2019-01-05T00:42:16.628Z,0.00
2019-01-05T00:43:16.626Z,0.00
2019-01-05T00:44:16.613Z,0.00
2019-01-05T00:45:16.601Z,0.00
2019-01-05T00:46:16.597Z,0.00
2019-01-05T00:47:16.591Z,0.00
2019-01-05T00:48:16.580Z,0.00
2019-01-05T00:49:16.569Z,0.00
2019-01-05T00:50:16.567Z,0.00
2019-01-05T00:51:16.552Z,0.00
2019-01-05T00:52:16.548Z,0.00
2019-01-05T00:53:16.543Z,0.00
2019-01-05T00:54:16.525Z,0.00
2019-01-05T00:55:16.521Z,0.00
2019-01-05T00:56:16.512Z,0.00
2019-01-05T00:57:16.507Z,0.00
2019-01-05T00:58:16.495Z,0.00
2019-01-05T00:59:16.489Z,0.00
2019-01-05T01:00:16.485Z,0.00
2019-01-05T01:01:16.470Z,0.00
2019-01-05T01:02:16.462Z,0.00
2019-01-05T01:03:16.458Z,0.00
2019-01-05T01:04:16.453Z,0.00
2019-01-05T01:05:16.441Z,0.00
2019-01-05T01:06:16.430Z,0.00
2019-01-05T01:07:16.424Z,0.00
2019-01-05T01:08:16.411Z,0.00
2019-01-05T01:09:16.408Z,0.00
2019-01-05T01:10:16.395Z,0.00
2019-01-05T01:11:16.382Z,0.00
2019-01-05T01:12:16.381Z,0.00
2019-01-05T01:13:16.374Z,0.00
2019-01-05T01:14:16.362Z,0.00
2019-01-05T01:15:16.352Z,0.00
2019-01-05T01:16:16.344Z,0.00
2019-01-05T01:17:16.340Z,0.00
2019-01-05T01:18:16.333Z,0.00
2019-01-05T01:19:16.316Z,0.00
2019-01-05T01:20:16.311Z,0.00
2019-01-05T01:21:16.298Z,0.00
2019-01-05T01:22:16.298Z,0.00
2019-01-05T01:23:16.290Z,0.00
2019-01-05T01:24:16.282Z,0.00
2019-01-05T01:25:16.275Z,0.00
2019-01-05T01:26:16.256Z,0.00
2019-01-05T01:27:16.255Z,0.00
2019-01-05T01:28:16.251Z,0.00
2019-01-05T01:29:16.236Z,0.00
2019-01-05T01:30:16.226Z,0.00
2019-01-05T01:31:16.214Z,0.00
2019-01-05T01:32:16.206Z,0.00
2019-01-05T01:33:16.201Z,0.00
2019-01-05T01:34:16.189Z,0.00
2019-01-05T01:35:16.183Z,0.00
2019-01-05T01:36:16.174Z,0.00
2019-01-05T01:37:16.171Z,0.00
2019-01-05T01:38:16.157Z,0.00
2019-01-05T01:39:16.149Z,0.00
2019-01-05T01:40:16.145Z,0.00
2019-01-05T01:41:16.134Z,0.00
2019-01-05T01:42:16.128Z,0.00
2019-01-05T01:43:16.118Z,0.00
2019-01-05T01:44:16.110Z,0.00
2019-01-05T01:45:16.104Z,0.00
2019-01-05T01:46:16.088Z,0.00
2019-01-05T01:47:16.085Z,0.00
2019-01-05T01:48:16.077Z,0.00
2019-01-05T01:49:16.062Z,0.00
2019-01-05T01:50:16.062Z,0.00
2019-01-05T01:51:16.053Z,0.00
2019-01-05T01:52:16.045Z,0.00
2019-01-05T01:53:16.028Z,0.00
2019-01-05T01:54:16.023Z,0.00
2019-01-05T01:55:16.021Z,0.00
2019-01-05T01:56:16.011Z,0.00
2019-01-05T01:57:16.003Z,0.00
2019-01-05T01:58:15.992Z,0.00
2019-01-05T01:59:15.979Z,0.00
2019-01-05T02:00:15.976Z,0.00
2019-01-05T02:01:15.962Z,0.00
2019-01-05T02:02:15.961Z,0.00
2019-01-05T02:03:15.951Z,0.00
2019-01-05T02:04:15.944Z,0.00
2019-01-05T02:05:15.930Z,0.00
2019-01-05T02:06:15.924Z,0.00
2019-01-05T02:07:15.911Z,0.00
2019-01-05T02:08:15.908Z,0.00
2019-01-05T02:09:15.896Z,0.00
2019-01-05T02:10:15.886Z,0.00
2019-01-05T02:11:15.883Z,0.00
2019-01-05T02:12:15.875Z,0.00
2019-01-05T02:13:15.866Z,0.00
2019-01-05T02:14:15.860Z,0.00
2019-01-05T02:15:15.850Z,0.00
2019-01-05T02:16:15.844Z,0.00
2019-01-05T02:17:15.830Z,0.00
2019-01-05T02:18:15.818Z,0.00
2019-01-05T02:19:15.813Z,0.00
2019-01-05T02:20:15.810Z,0.00
2019-01-05T02:21:15.793Z,0.00
2019-01-05T02:22:15.793Z,0.00
2019-01-05T02:23:15.782Z,0.00
2019-01-05T02:24:15.771Z,0.00
2019-01-05T02:25:15.760Z,0.00
2019-01-05T02:26:15.755Z,0.00
2019-01-05T02:27:15.747Z,0.00
2019-01-05T02:28:15.739Z,0.00
2019-01-05T02:29:15.735Z,0.00
2019-01-05T02:30:15.733Z,0.00
2019-01-05T02:31:15.717Z,0.00
2019-01-05T02:32:15.708Z,0.00
2019-01-05T02:33:15.699Z,0.00
2019-01-05T02:34:15.688Z,0.00
2019-01-05T02:35:15.684Z,0.00
2019-01-05T02:36:15.672Z,0.00
2019-01-05T02:37:15.666Z,0.00
2019-01-05T02:38:15.651Z,0.00
2019-01-05T02:39:15.648Z,0.00
2019-01-05T02:40:15.639Z,0.00
2019-01-05T02:41:15.633Z,0.00
2019-01-05T02:42:15.617Z,0.00
2019-01-05T02:43:15.610Z,0.00
2019-01-05T02:44:15.602Z,0.00
2019-01-05T02:45:15.679Z,0.00
2019-01-05T02:46:15.588Z,0.00
2019-01-05T02:47:15.580Z,0.00
2019-01-05T02:48:15.600Z,0.00
2019-01-05T02:49:15.565Z,0.00
2019-01-05T02:50:15.557Z,0.00
2019-01-05T02:51:15.550Z,0.00
2019-01-05T02:52:15.544Z,0.00
2019-01-05T02:53:15.538Z,0.00
2019-01-05T02:54:15.528Z,0.00
2019-01-05T02:55:15.520Z,0.00
2019-01-05T02:56:15.508Z,0.00
2019-01-05T02:57:15.501Z,0.00
2019-01-05T02:58:15.502Z,0.00
2019-01-05T02:59:15.485Z,0.00
2019-01-05T03:00:15.476Z,0.00
2019-01-05T03:01:15.466Z,0.00
2019-01-05T03:02:15.460Z,0.00
2019-01-05T03:03:15.453Z,0.00
2019-01-05T03:04:15.445Z,0.00
2019-01-05T03:05:15.436Z,0.00
2019-01-05T03:06:15.429Z,0.00
2019-01-05T03:07:15.426Z,0.00
2019-01-05T03:08:15.404Z,0.00
2019-01-05T03:09:15.399Z,0.00
2019-01-05T03:10:15.391Z,0.00
2019-01-05T03:11:15.384Z,0.00
2019-01-05T03:12:15.378Z,0.00
2019-01-05T03:13:15.364Z,0.00
2019-01-05T03:14:15.354Z,0.00
2019-01-05T03:15:15.350Z,0.00
2019-01-05T03:16:15.341Z,0.00
2019-01-05T03:17:15.338Z,0.00
2019-01-05T03:18:15.332Z,0.00
2019-01-05T03:19:15.327Z,0.00
2019-01-05T03:20:15.305Z,0.00
2019-01-05T03:21:15.302Z,0.00
2019-01-05T03:22:15.288Z,0.00
2019-01-05T03:23:15.287Z,0.00
2019-01-05T03:24:15.275Z,0.00
2019-01-05T03:25:15.267Z,0.00
2019-01-05T03:26:15.258Z,0.00
2019-01-05T03:27:15.251Z,0.00
2019-01-05T03:28:15.245Z,0.00
2019-01-05T03:29:15.239Z,0.00
2019-01-05T03:30:15.225Z,0.00
2019-01-05T03:31:15.219Z,0.00
2019-01-05T03:32:15.208Z,0.00
2019-01-05T03:33:15.218Z,0.00
2019-01-05T03:34:15.190Z,0.00
2019-01-05T03:35:15.188Z,0.00
2019-01-05T03:36:15.184Z,0.00
2019-01-05T03:37:15.174Z,0.00
2019-01-05T03:38:15.165Z,0.00
2019-01-05T03:39:15.153Z,0.00
2019-01-05T03:40:15.148Z,0.00
2019-01-05T03:41:15.133Z,0.00
2019-01-05T03:42:15.131Z,0.00
2019-01-05T03:43:15.124Z,0.00
2019-01-05T03:44:15.112Z,0.00
2019-01-05T03:45:15.102Z,0.00
2019-01-05T03:46:15.099Z,0.00
2019-01-05T03:47:15.091Z,0.00
2019-01-05T03:48:15.089Z,0.00
2019-01-05T03:49:15.076Z,0.00
2019-01-05T03:50:15.064Z,0.00
2019-01-05T03:51:15.056Z,0.00
2019-01-05T03:52:15.050Z,0.00
2019-01-05T03:53:15.045Z,0.00
2019-01-05T03:54:15.031Z,0.00
2019-01-05T03:55:15.026Z,0.00
2019-01-05T03:56:15.021Z,0.00
2019-01-05T03:57:15.010Z,0.00
2019-01-05T03:58:14.997Z,0.00
2019-01-05T03:59:14.996Z,0.00
2019-01-05T04:00:14.984Z,0.00
2019-01-05T04:01:14.978Z,0.00
2019-01-05T04:02:14.970Z,0.00
2019-01-05T04:03:14.965Z,0.00
2019-01-05T04:04:14.955Z,0.00
2019-01-05T04:05:14.949Z,0.00
2019-01-05T04:06:14.942Z,0.00
2019-01-05T04:07:14.926Z,0.00
2019-01-05T04:08:14.929Z,0.00
2019-01-05T04:09:14.918Z,0.00
2019-01-05T04:10:14.901Z,0.00
2019-01-05T04:11:14.901Z,0.00
2019-01-05T04:12:14.887Z,0.00
2019-01-05T04:13:14.884Z,0.00
2019-01-05T04:14:14.878Z,0.00
2019-01-05T04:15:14.861Z,0.00
2019-01-05T04:16:14.858Z,0.00
2019-01-05T04:17:14.848Z,0.00
2019-01-05T04:18:14.853Z,0.00
2019-01-05T04:19:14.839Z,0.00
2019-01-05T04:20:14.826Z,0.00
2019-01-05T04:21:14.828Z,0.00
2019-01-05T04:22:14.807Z,0.00
2019-01-05T04:23:14.807Z,0.00
2019-01-05T04:24:14.798Z,0.00
2019-01-05T04:25:14.790Z,0.00
2019-01-05T04:26:14.783Z,0.00
2019-01-05T04:27:14.778Z,0.00
2019-01-05T04:28:14.763Z,0.00
2019-01-05T04:29:14.757Z,0.00
2019-01-05T04:30:14.748Z,0.00
2019-01-05T04:31:14.744Z,0.00
2019-01-05T04:32:14.734Z,0.00
2019-01-05T04:33:14.728Z,0.00
2019-01-05T04:34:14.718Z,0.00
2019-01-05T04:35:14.712Z,0.00
2019-01-05T04:36:14.703Z,0.00
2019-01-05T04:37:14.691Z,0.00
2019-01-05T04:38:14.689Z,0.00
2019-01-05T04:39:14.679Z,0.00
2019-01-05T04:40:14.675Z,0.00
2019-01-05T04:41:14.658Z,0.00
2019-01-05T04:42:14.656Z,0.00
2019-01-05T04:43:14.646Z,0.00
2019-01-05T04:44:14.641Z,0.00
2019-01-05T04:45:14.634Z,0.00
2019-01-05T04:46:14.628Z,0.00
2019-01-05T04:47:14.618Z,0.00
2019-01-05T04:48:14.612Z,0.00
2019-01-05T04:49:14.601Z,0.00
2019-01-05T04:50:14.596Z,0.00
2019-01-05T04:51:14.585Z,0.00
2019-01-05T04:52:47.781Z,0.00
2019-01-05T04:53:14.566Z,0.00
2019-01-05T04:54:14.561Z,0.00
2019-01-05T04:55:14.550Z,0.00
2019-01-05T04:56:14.544Z,0.00
2019-01-05T04:57:14.541Z,0.00
2019-01-05T04:58:14.526Z,0.00
2019-01-05T04:59:14.519Z,0.00
2019-01-05T05:00:14.514Z,0.00
2019-01-05T05:01:14.501Z,0.00
2019-01-05T05:02:14.510Z,0.00
2019-01-05T05:03:14.495Z,0.00
2019-01-05T05:04:14.487Z,0.00
2019-01-05T05:05:14.472Z,0.00
2019-01-05T05:06:14.473Z,0.00
2019-01-05T05:07:14.460Z,0.00
2019-01-05T05:08:14.454Z,0.00
2019-01-05T05:09:14.444Z,0.00
2019-01-05T05:10:14.435Z,0.00
2019-01-05T05:11:14.437Z,0.00
2019-01-05T05:12:14.427Z,0.00
2019-01-05T05:13:14.415Z,0.00
2019-01-05T05:14:14.406Z,0.00
2019-01-05T05:15:14.399Z,0.00
2019-01-05T05:16:14.387Z,0.00
2019-01-05T05:17:14.386Z,0.00
2019-01-05T05:18:14.377Z,0.00
2019-01-05T05:19:14.371Z,0.00
2019-01-05T05:20:14.365Z,0.00
2019-01-05T05:21:14.355Z,0.00
2019-01-05T05:22:14.342Z,0.00
2019-01-05T05:23:14.337Z,0.00
2019-01-05T05:24:14.327Z,0.00
2019-01-05T05:25:14.316Z,0.00
2019-01-05T05:26:14.312Z,0.00
2019-01-05T05:27:14.306Z,0.00
2019-01-05T05:28:14.295Z,0.00
2019-01-05T05:29:14.288Z,0.00
2019-01-05T05:30:14.284Z,0.00
2019-01-05T05:31:14.272Z,0.00
2019-01-05T05:32:14.270Z,0.00
2019-01-05T05:33:14.259Z,0.00
2019-01-05T05:34:14.250Z,0.00
2019-01-05T05:35:14.247Z,0.00
2019-01-05T05:36:14.239Z,0.00
2019-01-05T05:37:14.228Z,0.00
2019-01-05T05:38:14.222Z,0.00
2019-01-05T05:39:14.210Z,0.00
2019-01-05T05:40:14.207Z,0.00
2019-01-05T05:41:14.199Z,0.00
2019-01-05T05:42:14.189Z,0.00
2019-01-05T05:43:14.182Z,0.00
2019-01-05T05:44:14.173Z,0.00
2019-01-05T05:45:14.159Z,0.00
2019-01-05T05:46:14.160Z,0.00
2019-01-05T05:47:14.155Z,0.00
2019-01-05T05:48:14.143Z,0.00
2019-01-05T05:49:14.130Z,0.00
2019-01-05T05:50:14.121Z,0.00
2019-01-05T05:51:14.118Z,0.00
2019-01-05T05:52:14.106Z,0.00
2019-01-05T05:53:14.101Z,0.00
2019-01-05T05:54:14.095Z,0.00
2019-01-05T05:55:14.083Z,0.00
2019-01-05T05:56:14.076Z,0.00
2019-01-05T05:57:14.066Z,0.00
2019-01-05T05:58:14.063Z,0.00
2019-01-05T05:59:14.054Z,0.00
2019-01-05T06:00:14.044Z,0.00
2019-01-05T06:01:14.042Z,0.00
2019-01-05T06:02:14.029Z,0.00
2019-01-05T06:03:14.022Z,0.00
2019-01-05T06:04:14.022Z,0.00
2019-01-05T06:05:14.003Z,0.00
2019-01-05T06:06:14.002Z,0.00
2019-01-05T06:07:13.995Z,0.00
2019-01-05T06:08:13.984Z,0.00
2019-01-05T06:09:13.972Z,0.00
2019-01-05T06:10:13.971Z,0.00
2019-01-05T06:11:13.962Z,0.00
2019-01-05T06:12:13.949Z,0.00
2019-01-05T06:13:13.948Z,0.00
2019-01-05T06:14:13.941Z,0.00
2019-01-05T06:15:13.930Z,0.00
2019-01-05T06:16:13.927Z,0.00
2019-01-05T06:17:13.910Z,0.00
2019-01-05T06:18:13.902Z,0.00
2019-01-05T06:19:13.905Z,0.00
2019-01-05T06:20:13.887Z,0.00
2019-01-05T06:21:13.882Z,0.00
2019-01-05T06:22:13.874Z,0.00
2019-01-05T06:23:13.870Z,0.00
2019-01-05T06:24:13.866Z,0.00
2019-01-05T06:25:13.852Z,0.00
2019-01-05T06:26:13.841Z,0.00
2019-01-05T06:27:13.832Z,0.00
2019-01-05T06:28:13.829Z,0.00
2019-01-05T06:29:13.816Z,0.00
2019-01-05T06:30:13.811Z,0.00
2019-01-05T06:31:13.810Z,0.00
2019-01-05T06:32:13.798Z,0.00
2019-01-05T06:33:13.788Z,0.00
2019-01-05T06:34:13.780Z,0.00
2019-01-05T06:35:13.780Z,0.00
2019-01-05T06:36:13.767Z,0.00
2019-01-05T06:37:13.758Z,0.00
2019-01-05T06:38:13.754Z,0.00
2019-01-05T06:39:13.743Z,0.00
2019-01-05T06:40:13.735Z,0.00
2019-01-05T06:41:13.723Z,0.00
2019-01-05T06:42:13.720Z,0.00
2019-01-05T06:43:13.712Z,0.00
2019-01-05T06:44:13.699Z,0.00
2019-01-05T06:45:13.698Z,0.00
2019-01-05T06:46:13.691Z,0.00
2019-01-05T06:47:13.677Z,0.00
2019-01-05T06:48:13.675Z,0.00
2019-01-05T06:49:13.665Z,0.00
2019-01-05T06:50:13.663Z,0.00
2019-01-05T06:51:13.644Z,0.00
2019-01-05T06:52:13.638Z,0.00
2019-01-05T06:53:13.630Z,0.00
2019-01-05T06:54:13.625Z,0.00
2019-01-05T06:55:13.621Z,0.00
2019-01-05T06:56:13.610Z,0.00
2019-01-05T06:57:13.604Z,0.00
2019-01-05T06:58:13.591Z,0.00
2019-01-05T06:59:13.588Z,0.00
2019-01-05T07:00:13.583Z,0.00
2019-01-05T07:01:13.572Z,0.00
2019-01-05T07:02:13.559Z,0.00
2019-01-05T07:03:13.550Z,0.00
2019-01-05T07:04:13.551Z,0.00
2019-01-05T07:05:13.538Z,0.00
2019-01-05T07:06:13.534Z,0.00
2019-01-05T07:07:13.525Z,0.00
2019-01-05T07:08:13.513Z,0.00
2019-01-05T07:09:13.501Z,0.00
2019-01-05T07:10:13.501Z,4.00
2019-01-05T07:11:13.500Z,4.00
2019-01-05T07:12:13.485Z,4.00
2019-01-05T07:13:13.470Z,4.00
2019-01-05T07:14:13.463Z,8.00
2019-01-05T07:15:13.457Z,8.00
2019-01-05T07:16:13.456Z,4.00
2019-01-05T07:17:13.451Z,8.00
2019-01-05T07:18:13.440Z,8.00
2019-01-05T07:19:13.430Z,8.00
2019-01-05T07:20:13.422Z,16.00
2019-01-05T07:21:13.410Z,12.00
2019-01-05T07:22:13.406Z,16.00
2019-01-05T07:23:13.401Z,20.00
2019-01-05T07:24:13.394Z,24.00
2019-01-05T07:25:13.385Z,28.00
2019-01-05T07:26:13.372Z,32.00
2019-01-05T07:27:13.366Z,36.00
2019-01-05T07:28:13.362Z,36.00
2019-01-05T07:29:13.348Z,44.00
2019-01-05T07:30:13.341Z,44.00
2019-01-05T07:31:13.336Z,48.00
2019-01-05T07:32:13.328Z,48.00
2019-01-05T07:33:13.321Z,52.00
2019-01-05T07:34:13.312Z,56.00
2019-01-05T07:35:13.302Z,56.00
2019-01-05T07:36:13.294Z,60.00
2019-01-05T07:37:13.282Z,68.00
2019-01-05T07:38:13.284Z,72.00
2019-01-05T07:39:13.273Z,76.00
2019-01-05T07:40:13.263Z,80.00
2019-01-05T07:41:13.258Z,80.00
2019-01-05T07:42:13.244Z,96.00
2019-01-05T07:43:13.244Z,100.00
2019-01-05T07:44:13.229Z,112.00
2019-01-05T07:45:13.220Z,104.00
2019-01-05T07:46:13.212Z,136.00
2019-01-05T07:47:13.216Z,140.00
2019-01-05T07:48:13.205Z,124.00
2019-01-05T07:49:13.196Z,128.00
2019-01-05T07:50:13.190Z,108.00
2019-01-05T07:51:13.181Z,128.00
2019-01-05T07:52:13.171Z,140.00
2019-01-05T07:53:13.162Z,156.00
2019-01-05T07:54:13.157Z,144.00
2019-01-05T07:55:13.146Z,152.00
2019-01-05T07:56:13.142Z,152.00
2019-01-05T07:57:13.132Z,160.00
2019-01-05T07:58:13.126Z,204.00
2019-01-05T07:59:13.119Z,168.00
2019-01-05T08:00:13.109Z,212.00
2019-01-05T08:01:13.098Z,240.00
2019-01-05T08:02:13.093Z,244.00
2019-01-05T08:03:13.090Z,280.00
2019-01-05T08:04:13.073Z,288.00
2019-01-05T08:05:13.071Z,308.00
2019-01-05T08:06:13.063Z,372.00
2019-01-05T08:07:13.052Z,388.00
2019-01-05T08:08:13.042Z,416.00
2019-01-05T08:09:13.038Z,380.00
2019-01-05T08:10:13.029Z,448.00
2019-01-05T08:11:13.019Z,536.00
2019-01-05T08:12:13.013Z,448.00
2019-01-05T08:13:13.005Z,444.00
2019-01-05T08:14:12.995Z,520.00
2019-01-05T08:15:12.990Z,616.00
2019-01-05T08:16:12.982Z,656.00
2019-01-05T08:17:12.984Z,624.00
2019-01-05T08:18:12.964Z,668.00
2019-01-05T08:19:12.965Z,568.00
2019-01-05T08:20:12.954Z,576.00
2019-01-05T08:21:12.939Z,644.00
2019-01-05T08:22:12.944Z,560.00
2019-01-05T08:23:12.926Z,592.00
2019-01-05T08:24:12.925Z,676.00
2019-01-05T08:25:12.912Z,744.00
2019-01-05T08:26:12.907Z,644.00
2019-01-05T08:27:12.902Z,840.00
2019-01-05T08:28:12.893Z,920.00
2019-01-05T08:29:12.885Z,936.00
2019-01-05T08:30:12.874Z,864.00
2019-01-05T08:31:12.873Z,924.00
2019-01-05T08:32:12.865Z,1080.00
2019-01-05T08:33:12.855Z,1012.00
2019-01-05T08:34:12.843Z,908.00
2019-01-05T08:35:12.833Z,988.00
2019-01-05T08:36:12.830Z,1080.00
2019-01-05T08:37:12.825Z,1040.00
2019-01-05T08:38:12.823Z,1060.00
2019-01-05T08:39:12.809Z,1036.00
2019-01-05T08:40:12.800Z,868.00
2019-01-05T08:41:12.789Z,828.00
2019-01-05T08:42:12.782Z,972.00
2019-01-05T08:43:12.773Z,1160.00
2019-01-05T08:44:12.770Z,1144.00
2019-01-05T08:45:12.762Z,1076.00
2019-01-05T08:46:12.755Z,1076.00
2019-01-05T08:47:12.750Z,1184.00
2019-01-05T08:48:12.734Z,1192.00
2019-01-05T08:49:12.729Z,1284.00
2019-01-05T08:50:12.725Z,1004.00
2019-01-05T08:51:12.720Z,1288.00
2019-01-05T08:52:12.706Z,1160.00
2019-01-05T08:53:12.698Z,1064.00
2019-01-05T08:54:12.699Z,968.00
2019-01-05T08:55:12.684Z,1056.00
2019-01-05T08:56:12.679Z,1016.00
2019-01-05T08:57:12.671Z,1260.00
2019-01-05T08:58:12.661Z,1120.00
2019-01-05T08:59:12.662Z,1092.00
2019-01-05T09:00:12.647Z,1380.00
2019-01-05T09:01:12.644Z,1316.00
2019-01-05T09:02:12.652Z,1112.00
2019-01-05T09:03:12.625Z,1408.00
2019-01-05T09:04:12.618Z,1256.00
2019-01-05T09:05:12.619Z,1168.00
2019-01-05T09:06:12.611Z,1268.00
2019-01-05T09:07:12.595Z,1256.00
2019-01-05T09:08:12.592Z,1332.00
2019-01-05T09:09:12.583Z,1452.00
2019-01-05T09:10:12.573Z,1396.00
2019-01-05T09:11:12.575Z,1288.00
2019-01-05T09:12:12.568Z,1256.00
2019-01-05T09:13:12.559Z,1268.00
2019-01-05T09:14:12.547Z,1220.00
2019-01-05T09:15:12.545Z,1372.00
2019-01-05T09:16:12.530Z,1452.00
2019-01-05T09:17:12.524Z,1612.00
2019-01-05T09:18:12.520Z,1564.00
2019-01-05T09:19:12.514Z,1416.00
2019-01-05T09:20:12.501Z,1876.00
2019-01-05T09:21:12.495Z,1792.00
2019-01-05T09:22:12.485Z,1740.00
2019-01-05T09:23:12.478Z,1656.00
2019-01-05T09:24:12.475Z,1824.00
2019-01-05T09:25:12.462Z,1664.00
2019-01-05T09:26:12.458Z,1696.00
2019-01-05T09:27:12.457Z,1700.00
2019-01-05T09:28:12.448Z,1584.00
2019-01-05T09:29:12.436Z,1460.00
2019-01-05T09:30:12.435Z,1728.00
2019-01-05T09:31:12.424Z,2272.00
2019-01-05T09:32:12.416Z,2356.00
2019-01-05T09:33:12.409Z,2244.00
2019-01-05T09:34:12.405Z,2584.00
2019-01-05T09:35:12.398Z,1960.00
2019-01-05T09:36:12.387Z,1696.00
2019-01-05T09:37:12.379Z,2340.00
2019-01-05T09:38:12.376Z,1848.00
2019-01-05T09:39:12.369Z,2092.00
2019-01-05T09:40:12.356Z,1908.00
2019-01-05T09:41:12.354Z,2148.00
2019-01-05T09:42:12.344Z,2032.00
2019-01-05T09:43:12.337Z,1984.00
2019-01-05T09:44:12.333Z,2376.00
2019-01-05T09:45:12.322Z,2504.00
2019-01-05T09:46:12.314Z,2564.00
2019-01-05T09:47:12.307Z,2680.00
2019-01-05T09:48:12.295Z,2756.00
2019-01-05T09:49:12.295Z,2888.00
2019-01-05T09:50:12.287Z,2636.00
2019-01-05T09:51:12.276Z,3020.00
2019-01-05T09:52:12.267Z,2712.00
2019-01-05T09:53:12.269Z,2860.00
2019-01-05T09:54:12.259Z,2848.00
2019-01-05T09:55:12.250Z,2768.00
2019-01-05T09:56:12.241Z,3132.00
2019-01-05T09:57:12.245Z,2580.00
2019-01-05T09:58:12.227Z,2968.00
2019-01-05T09:59:12.225Z,2536.00
2019-01-05T10:00:12.215Z,2344.00
2019-01-05T10:01:12.204Z,2428.00
2019-01-05T10:02:12.237Z,2668.00
2019-01-05T10:03:12.246Z,2492.00
2019-01-05T10:04:12.253Z,2496.00
2019-01-05T10:05:12.244Z,2164.00
2019-01-05T10:06:12.169Z,2276.00
2019-01-05T10:07:12.168Z,2032.00
2019-01-05T10:08:12.155Z,2372.00
2019-01-05T10:09:12.207Z,2016.00
2019-01-05T10:10:12.147Z,1924.00
2019-01-05T10:11:12.188Z,2480.00
2019-01-05T10:12:12.124Z,2568.00
2019-01-05T10:13:12.119Z,2848.00
2019-01-05T10:14:12.116Z,2784.00
2019-01-05T10:15:12.103Z,2404.00
2019-01-05T10:16:12.099Z,2592.00
2019-01-05T10:17:12.093Z,2244.00
2019-01-05T10:18:12.086Z,1896.00
2019-01-05T10:19:12.094Z,2184.00
2019-01-05T10:20:12.068Z,2280.00
2019-01-05T10:21:12.069Z,2212.00
2019-01-05T10:22:12.061Z,2580.00
2019-01-05T10:23:12.049Z,2436.00
2019-01-05T10:24:12.039Z,2360.00
2019-01-05T10:25:12.039Z,2316.00
2019-01-05T10:26:12.032Z,2760.00
2019-01-05T10:27:12.020Z,2444.00
2019-01-05T10:28:12.019Z,2288.00
2019-01-05T10:29:12.002Z,2404.00
2019-01-05T10:30:12.045Z,2344.00
2019-01-05T10:31:11.995Z,2832.00
2019-01-05T10:32:11.984Z,2596.00
2019-01-05T10:33:11.991Z,2824.00
2019-01-05T10:34:11.970Z,3348.00
2019-01-05T10:35:11.963Z,4064.00
2019-01-05T10:36:11.957Z,3052.00
2019-01-05T10:37:11.946Z,3328.00
2019-01-05T10:38:11.945Z,2496.00
2019-01-05T10:39:11.938Z,3316.00
2019-01-05T10:40:11.930Z,3396.00
2019-01-05T10:41:11.924Z,2984.00
2019-01-05T10:42:11.912Z,3484.00
2019-01-05T10:43:11.906Z,2728.00
2019-01-05T10:44:11.905Z,2948.00
2019-01-05T10:45:11.899Z,2752.00
2019-01-05T10:46:11.894Z,2704.00
2019-01-05T10:47:11.881Z,3072.00
2019-01-05T10:48:11.875Z,2900.00
2019-01-05T10:49:11.871Z,3104.00
2019-01-05T10:50:11.870Z,2708.00
2019-01-05T10:51:11.857Z,2564.00
2019-01-05T10:52:11.845Z,3252.00
2019-01-05T10:53:11.845Z,3080.00
2019-01-05T10:54:11.831Z,3000.00
2019-01-05T10:55:11.827Z,2616.00
2019-01-05T10:56:11.823Z,2728.00
2019-01-05T10:57:11.816Z,2996.00
2019-01-05T10:58:11.804Z,2872.00
2019-01-05T10:59:11.806Z,3092.00
2019-01-05T11:00:11.847Z,2292.00
2019-01-05T11:01:11.787Z,3176.00
2019-01-05T11:02:11.784Z,3296.00
2019-01-05T11:03:11.778Z,3184.00
2019-01-05T11:04:11.768Z,2988.00
2019-01-05T11:05:11.758Z,3448.00
2019-01-05T11:06:11.757Z,3312.00
2019-01-05T11:07:11.751Z,3360.00
2019-01-05T11:08:11.742Z,3728.00
2019-01-05T11:09:11.728Z,3348.00
2019-01-05T11:10:11.727Z,3432.00
2019-01-05T11:11:11.724Z,3380.00
2019-01-05T11:12:11.716Z,4720.00
2019-01-05T11:13:11.703Z,4856.00
2019-01-05T11:14:11.699Z,4116.00
2019-01-05T11:15:11.692Z,4384.00
2019-01-05T11:16:11.683Z,3356.00
2019-01-05T11:17:11.683Z,3996.00
2019-01-05T11:18:11.684Z,3284.00
2019-01-05T11:19:11.665Z,3212.00
2019-01-05T11:20:11.658Z,4080.00
2019-01-05T11:21:11.647Z,3624.00
2019-01-05T11:22:11.642Z,3100.00
2019-01-05T11:23:11.646Z,3432.00
2019-01-05T11:24:11.629Z,3304.00
2019-01-05T11:25:11.635Z,3200.00
2019-01-05T11:26:11.620Z,3408.00
2019-01-05T11:27:11.606Z,2772.00
2019-01-05T11:28:11.603Z,3036.00
2019-01-05T11:29:11.600Z,3240.00
2019-01-05T11:30:11.589Z,3460.00
2019-01-05T11:31:11.579Z,3172.00
2019-01-05T11:32:11.577Z,3164.00
2019-01-05T11:33:11.568Z,2492.00
2019-01-05T11:34:11.563Z,2384.00
2019-01-05T11:35:11.571Z,3272.00
2019-01-05T11:36:11.557Z,2816.00
2019-01-05T11:37:11.545Z,2576.00
2019-01-05T11:38:11.535Z,2744.00
2019-01-05T11:39:11.528Z,3252.00
2019-01-05T11:40:11.516Z,2724.00
2019-01-05T11:41:11.514Z,2804.00
2019-01-05T11:42:11.514Z,2512.00
2019-01-05T11:43:11.498Z,3052.00
2019-01-05T11:44:11.494Z,2980.00
2019-01-05T11:45:11.494Z,3384.00
2019-01-05T11:46:11.484Z,3000.00
2019-01-05T11:47:11.469Z,2800.00
2019-01-05T11:48:11.470Z,2524.00
2019-01-05T11:49:11.464Z,2896.00
2019-01-05T11:50:11.466Z,2564.00
2019-01-05T11:51:11.472Z,2300.00
2019-01-05T11:52:11.441Z,2124.00
2019-01-05T11:53:11.431Z,2460.00
2019-01-05T11:54:11.436Z,2672.00
2019-01-05T11:55:11.415Z,2552.00
2019-01-05T11:56:11.414Z,2448.00
2019-01-05T11:57:11.406Z,2328.00
2019-01-05T11:58:11.399Z,2396.00
2019-01-05T11:59:11.385Z,2828.00
2019-01-05T12:00:11.386Z,2724.00
2019-01-05T12:01:11.395Z,2500.00
2019-01-05T12:02:11.370Z,2516.00
2019-01-05T12:03:11.366Z,3536.00
2019-01-05T12:04:11.352Z,2692.00
2019-01-05T12:05:11.349Z,3284.00
2019-01-05T12:06:11.344Z,3228.00
2019-01-05T12:07:11.339Z,2596.00
2019-01-05T12:08:11.346Z,2512.00
2019-01-05T12:09:11.318Z,2148.00
2019-01-05T12:10:11.318Z,2616.00
2019-01-05T12:11:11.317Z,2364.00
2019-01-05T12:12:11.302Z,2460.00
2019-01-05T12:13:11.297Z,2596.00
2019-01-05T12:14:11.284Z,3236.00
2019-01-05T12:15:11.284Z,2940.00
2019-01-05T12:16:11.271Z,2628.00
2019-01-05T12:17:11.263Z,3008.00
2019-01-05T12:18:11.257Z,2980.00
2019-01-05T12:19:11.253Z,3064.00
2019-01-05T12:20:11.246Z,2748.00
2019-01-05T12:21:11.241Z,2900.00
2019-01-05T12:22:11.238Z,3716.00
2019-01-05T12:23:11.228Z,3388.00
2019-01-05T12:24:11.219Z,3484.00
2019-01-05T12:25:11.211Z,2776.00
2019-01-05T12:26:11.208Z,4224.00
2019-01-05T12:27:11.199Z,3348.00
2019-01-05T12:28:11.195Z,3492.00
2019-01-05T12:29:11.188Z,3108.00
2019-01-05T12:30:11.187Z,3788.00
2019-01-05T12:31:11.175Z,3400.00
2019-01-05T12:32:11.169Z,3404.00
2019-01-05T12:33:11.156Z,3052.00
2019-01-05T12:34:11.153Z,3088.00
2019-01-05T12:35:11.144Z,3176.00
2019-01-05T12:36:11.140Z,2900.00
2019-01-05T12:37:11.137Z,2708.00
2019-01-05T12:38:11.129Z,3292.00
2019-01-05T12:39:11.126Z,2880.00
2019-01-05T12:40:11.111Z,3216.00
2019-01-05T12:41:11.103Z,2644.00
2019-01-05T12:42:11.100Z,2600.00
2019-01-05T12:43:11.096Z,2368.00
2019-01-05T12:44:11.096Z,2440.00
2019-01-05T12:45:11.081Z,2664.00
2019-01-05T12:46:11.076Z,2316.00
2019-01-05T12:47:11.072Z,2156.00
2019-01-05T12:48:11.065Z,2668.00